sensor_id;sensor_type;location;lat;lon;timestamp;temperature;humidity
11617;DHT22;5864;52.998;9.068;2023-10-19T00:00:58;8.70;99.90
11617;DHT22;5864;52.998;9.068;2023-10-19T00:03:45;8.60;1.00
11617;DHT22;5864;52.998;9.068;2023-10-19T00:06:32;9.00;1.00
11617;DHT22;5864;52.998;9.068;2023-10-19T00:09:17;8.50;16.40
11617;DHT22;5864;52.998;9.068;2023-10-19T00:12:05;8.40;1.00
11617;DHT22;5864;52.998;9.068;2023-10-19T00:14:54;8.30;1.00
11617;DHT22;5864;52.998;9.068;2023-10-19T00:17:39;8.30;1.00
11617;DHT22;5864;52.998;9.068;2023-10-19T00:20:29;8.30;1.00
11617;DHT22;5864;52.998;9.068;2023-10-19T00:23:31;8.30;1.00
11617;DHT22;5864;52.998;9.068;2023-10-19T00:26:17;8.30;1.00
11617;DHT22;5864;52.998;9.068;2023-10-19T00:29:05;8.20;1.00
11617;DHT22;5864;52.998;9.068;2023-10-19T00:32:03;9.50;24.90
11617;DHT22;5864;52.998;9.068;2023-10-19T00:34:50;8.20;17.50
11617;DHT22;5864;52.998;9.068;2023-10-19T00:37:38;8.10;1.00
11617;DHT22;5864;52.998;9.068;2023-10-19T00:40:26;8.50;1.10
11617;DHT22;5864;52.998;9.068;2023-10-19T00:43:29;8.10;27.10
11617;DHT22;5864;52.998;9.068;2023-10-19T00:46:19;8.00;52.20
11617;DHT22;5864;52.998;9.068;2023-10-19T00:49:11;8.00;44.00
11617;DHT22;5864;52.998;9.068;2023-10-19T00:52:00;8.00;84.80
11617;DHT22;5864;52.998;9.068;2023-10-19T00:54:55;8.00;90.10
11617;DHT22;5864;52.998;9.068;2023-10-19T00:57:42;7.90;99.90
11617;DHT22;5864;52.998;9.068;2023-10-19T01:00:33;9.40;99.90
11617;DHT22;5864;52.998;9.068;2023-10-19T01:03:21;7.80;99.90
11617;DHT22;5864;52.998;9.068;2023-10-19T01:06:06;7.80;99.90
11617;DHT22;5864;52.998;9.068;2023-10-19T01:08:58;7.70;99.90
11617;DHT22;5864;52.998;9.068;2023-10-19T01:11:43;7.70;99.90
11617;DHT22;5864;52.998;9.068;2023-10-19T01:14:34;7.70;99.90
11617;DHT22;5864;52.998;9.068;2023-10-19T01:17:21;7.70;99.90
11617;DHT22;5864;52.998;9.068;2023-10-19T01:20:10;7.70;99.90
11617;DHT22;5864;52.998;9.068;2023-10-19T01:23:08;7.70;99.90
11617;DHT22;5864;52.998;9.068;2023-10-19T01:26:04;7.60;99.90
11617;DHT22;5864;52.998;9.068;2023-10-19T01:28:52;7.60;99.90
11617;DHT22;5864;52.998;9.068;2023-10-19T01:31:45;7.60;99.90
11617;DHT22;5864;52.998;9.068;2023-10-19T01:34:40;7.50;99.90
11617;DHT22;5864;52.998;9.068;2023-10-19T01:37:26;7.50;99.90
11617;DHT22;5864;52.998;9.068;2023-10-19T01:40:13;7.40;99.90
11617;DHT22;5864;52.998;9.068;2023-10-19T01:43:00;7.40;99.90
11617;DHT22;5864;52.998;9.068;2023-10-19T01:45:46;7.40;99.90
11617;DHT22;5864;52.998;9.068;2023-10-19T01:48:31;7.90;99.90
11617;DHT22;5864;52.998;9.068;2023-10-19T01:51:19;7.40;99.90
11617;DHT22;5864;52.998;9.068;2023-10-19T01:54:07;8.70;99.90
11617;DHT22;5864;52.998;9.068;2023-10-19T01:56:54;7.30;99.90
11617;DHT22;5864;52.998;9.068;2023-10-19T01:59:40;7.90;99.90
11617;DHT22;5864;52.998;9.068;2023-10-19T02:02:28;7.30;99.90
11617;DHT22;5864;52.998;9.068;2023-10-19T02:05:16;7.30;99.90
11617;DHT22;5864;52.998;9.068;2023-10-19T02:08:03;7.30;99.90
11617;DHT22;5864;52.998;9.068;2023-10-19T02:10:48;7.20;99.90
11617;DHT22;5864;52.998;9.068;2023-10-19T02:13:35;7.90;99.90
11617;DHT22;5864;52.998;9.068;2023-10-19T02:16:21;7.10;99.90
11617;DHT22;5864;52.998;9.068;2023-10-19T02:19:07;7.20;99.90
11617;DHT22;5864;52.998;9.068;2023-10-19T02:21:53;8.20;99.90
11617;DHT22;5864;52.998;9.068;2023-10-19T02:24:39;7.20;99.90
11617;DHT22;5864;52.998;9.068;2023-10-19T02:27:24;7.10;99.90
11617;DHT22;5864;52.998;9.068;2023-10-19T02:30:13;7.10;99.90
11617;DHT22;5864;52.998;9.068;2023-10-19T02:32:58;7.10;99.90
11617;DHT22;5864;52.998;9.068;2023-10-19T02:35:44;7.10;99.90
11617;DHT22;5864;52.998;9.068;2023-10-19T02:38:32;7.10;99.90
11617;DHT22;5864;52.998;9.068;2023-10-19T02:41:18;7.10;99.90
11617;DHT22;5864;52.998;9.068;2023-10-19T02:44:07;7.10;99.90
11617;DHT22;5864;52.998;9.068;2023-10-19T02:46:55;7.10;99.90
11617;DHT22;5864;52.998;9.068;2023-10-19T02:49:43;8.00;99.90
11617;DHT22;5864;52.998;9.068;2023-10-19T02:52:35;7.10;99.90
11617;DHT22;5864;52.998;9.068;2023-10-19T02:55:20;7.10;99.90
11617;DHT22;5864;52.998;9.068;2023-10-19T02:58:07;7.00;99.90
11617;DHT22;5864;52.998;9.068;2023-10-19T03:00:53;7.00;99.90
11617;DHT22;5864;52.998;9.068;2023-10-19T03:03:40;7.00;99.90
11617;DHT22;5864;52.998;9.068;2023-10-19T03:06:29;7.00;99.90
11617;DHT22;5864;52.998;9.068;2023-10-19T03:09:16;7.10;99.90
11617;DHT22;5864;52.998;9.068;2023-10-19T03:12:06;7.00;99.90
11617;DHT22;5864;52.998;9.068;2023-10-19T03:14:54;7.00;99.90
11617;DHT22;5864;52.998;9.068;2023-10-19T03:17:40;7.00;99.90
11617;DHT22;5864;52.998;9.068;2023-10-19T03:20:27;7.00;99.90
11617;DHT22;5864;52.998;9.068;2023-10-19T03:23:13;7.00;99.90
11617;DHT22;5864;52.998;9.068;2023-10-19T03:25:58;7.00;99.90
11617;DHT22;5864;52.998;9.068;2023-10-19T03:28:58;6.90;99.90
11617;DHT22;5864;52.998;9.068;2023-10-19T03:31:52;6.90;99.90
11617;DHT22;5864;52.998;9.068;2023-10-19T03:34:38;7.40;99.90
11617;DHT22;5864;52.998;9.068;2023-10-19T03:37:28;6.90;99.90
11617;DHT22;5864;52.998;9.068;2023-10-19T03:40:14;6.90;99.90
11617;DHT22;5864;52.998;9.068;2023-10-19T03:43:09;7.00;99.90
11617;DHT22;5864;52.998;9.068;2023-10-19T03:46:03;7.00;99.90
11617;DHT22;5864;52.998;9.068;2023-10-19T03:48:58;6.90;99.90
11617;DHT22;5864;52.998;9.068;2023-10-19T03:51:48;6.90;99.90
11617;DHT22;5864;52.998;9.068;2023-10-19T03:54:47;6.90;99.90
11617;DHT22;5864;52.998;9.068;2023-10-19T03:57:33;6.80;99.90
11617;DHT22;5864;52.998;9.068;2023-10-19T04:00:19;6.90;99.90
11617;DHT22;5864;52.998;9.068;2023-10-19T04:03:08;6.90;99.90
11617;DHT22;5864;52.998;9.068;2023-10-19T04:05:54;6.90;99.90
11617;DHT22;5864;52.998;9.068;2023-10-19T04:08:41;6.90;99.90
11617;DHT22;5864;52.998;9.068;2023-10-19T04:11:30;7.90;99.90
11617;DHT22;5864;52.998;9.068;2023-10-19T04:14:29;6.90;99.90
11617;DHT22;5864;52.998;9.068;2023-10-19T04:17:15;7.20;99.90
11617;DHT22;5864;52.998;9.068;2023-10-19T04:20:06;6.90;99.90
11617;DHT22;5864;52.998;9.068;2023-10-19T04:22:58;6.90;99.90
11617;DHT22;5864;52.998;9.068;2023-10-19T04:25:50;6.90;99.90
11617;DHT22;5864;52.998;9.068;2023-10-19T04:28:39;6.90;99.90
11617;DHT22;5864;52.998;9.068;2023-10-19T04:31:28;6.90;99.90
11617;DHT22;5864;52.998;9.068;2023-10-19T04:34:14;6.90;99.90
11617;DHT22;5864;52.998;9.068;2023-10-19T04:37:01;6.90;99.90
11617;DHT22;5864;52.998;9.068;2023-10-19T04:39:47;6.90;99.90
11617;DHT22;5864;52.998;9.068;2023-10-19T04:42:33;6.90;99.90
11617;DHT22;5864;52.998;9.068;2023-10-19T04:45:22;7.00;99.90
11617;DHT22;5864;52.998;9.068;2023-10-19T04:48:08;7.00;99.90
11617;DHT22;5864;52.998;9.068;2023-10-19T04:50:54;7.00;99.90
11617;DHT22;5864;52.998;9.068;2023-10-19T04:53:41;6.90;99.90
11617;DHT22;5864;52.998;9.068;2023-10-19T04:56:26;6.90;99.90
11617;DHT22;5864;52.998;9.068;2023-10-19T04:59:12;7.90;99.90
11617;DHT22;5864;52.998;9.068;2023-10-19T05:01:59;7.30;99.90
11617;DHT22;5864;52.998;9.068;2023-10-19T05:04:45;6.90;99.90
11617;DHT22;5864;52.998;9.068;2023-10-19T05:07:31;6.90;99.90
11617;DHT22;5864;52.998;9.068;2023-10-19T05:10:17;6.90;99.90
11617;DHT22;5864;52.998;9.068;2023-10-19T05:13:04;6.80;99.90
11617;DHT22;5864;52.998;9.068;2023-10-19T05:15:49;6.80;99.90
11617;DHT22;5864;52.998;9.068;2023-10-19T05:18:36;6.80;99.90
11617;DHT22;5864;52.998;9.068;2023-10-19T05:21:23;6.80;99.90
11617;DHT22;5864;52.998;9.068;2023-10-19T05:24:09;6.80;99.90
11617;DHT22;5864;52.998;9.068;2023-10-19T05:26:55;6.80;99.90
11617;DHT22;5864;52.998;9.068;2023-10-19T05:29:40;6.80;99.90
11617;DHT22;5864;52.998;9.068;2023-10-19T05:32:26;6.80;99.90
11617;DHT22;5864;52.998;9.068;2023-10-19T05:35:15;6.80;99.90
11617;DHT22;5864;52.998;9.068;2023-10-19T05:38:08;6.80;99.90
11617;DHT22;5864;52.998;9.068;2023-10-19T05:40:53;6.80;99.90
11617;DHT22;5864;52.998;9.068;2023-10-19T05:43:40;6.80;99.90
11617;DHT22;5864;52.998;9.068;2023-10-19T05:46:26;6.80;99.90
11617;DHT22;5864;52.998;9.068;2023-10-19T05:49:13;6.80;99.90
11617;DHT22;5864;52.998;9.068;2023-10-19T05:52:02;6.80;99.90
11617;DHT22;5864;52.998;9.068;2023-10-19T05:54:48;6.80;99.90
11617;DHT22;5864;52.998;9.068;2023-10-19T05:57:35;6.90;99.90
11617;DHT22;5864;52.998;9.068;2023-10-19T06:00:24;6.80;99.90
11617;DHT22;5864;52.998;9.068;2023-10-19T06:03:10;6.80;99.90
11617;DHT22;5864;52.998;9.068;2023-10-19T06:05:56;6.80;99.90
11617;DHT22;5864;52.998;9.068;2023-10-19T06:08:43;7.10;99.90
11617;DHT22;5864;52.998;9.068;2023-10-19T06:11:29;6.80;99.90
11617;DHT22;5864;52.998;9.068;2023-10-19T06:14:16;6.80;99.90
11617;DHT22;5864;52.998;9.068;2023-10-19T06:17:01;6.90;99.90
11617;DHT22;5864;52.998;9.068;2023-10-19T06:19:47;6.80;99.90
11617;DHT22;5864;52.998;9.068;2023-10-19T06:22:32;7.90;99.90
11617;DHT22;5864;52.998;9.068;2023-10-19T06:25:21;6.80;99.90
11617;DHT22;5864;52.998;9.068;2023-10-19T06:28:07;7.90;99.90
11617;DHT22;5864;52.998;9.068;2023-10-19T06:30:52;6.90;99.90
11617;DHT22;5864;52.998;9.068;2023-10-19T06:33:38;6.90;99.90
11617;DHT22;5864;52.998;9.068;2023-10-19T06:36:25;6.90;99.90
11617;DHT22;5864;52.998;9.068;2023-10-19T06:39:10;6.80;99.90
11617;DHT22;5864;52.998;9.068;2023-10-19T06:41:58;6.90;99.90
11617;DHT22;5864;52.998;9.068;2023-10-19T06:44:44;6.80;99.90
11617;DHT22;5864;52.998;9.068;2023-10-19T06:47:31;7.20;99.90
11617;DHT22;5864;52.998;9.068;2023-10-19T06:50:23;6.90;99.90
11617;DHT22;5864;52.998;9.068;2023-10-19T06:55:55;6.90;99.90
11617;DHT22;5864;52.998;9.068;2023-10-19T06:58:42;7.80;99.90
11617;DHT22;5864;52.998;9.068;2023-10-19T07:01:29;6.90;99.90
11617;DHT22;5864;52.998;9.068;2023-10-19T07:04:16;7.00;99.90
11617;DHT22;5864;52.998;9.068;2023-10-19T07:07:01;7.00;99.90
11617;DHT22;5864;52.998;9.068;2023-10-19T07:09:47;7.00;99.90
11617;DHT22;5864;52.998;9.068;2023-10-19T07:12:33;6.90;99.90
11617;DHT22;5864;52.998;9.068;2023-10-19T07:15:21;6.90;99.90
11617;DHT22;5864;52.998;9.068;2023-10-19T07:18:07;7.40;99.90
11617;DHT22;5864;52.998;9.068;2023-10-19T07:20:53;6.90;99.90
11617;DHT22;5864;52.998;9.068;2023-10-19T07:23:46;7.00;99.90
11617;DHT22;5864;52.998;9.068;2023-10-19T07:26:36;7.20;99.90
11617;DHT22;5864;52.998;9.068;2023-10-19T07:29:27;7.00;99.90
11617;DHT22;5864;52.998;9.068;2023-10-19T07:32:15;7.20;99.90
11617;DHT22;5864;52.998;9.068;2023-10-19T07:35:01;7.00;99.90
11617;DHT22;5864;52.998;9.068;2023-10-19T07:37:47;7.00;99.90
11617;DHT22;5864;52.998;9.068;2023-10-19T07:40:34;7.00;99.90
11617;DHT22;5864;52.998;9.068;2023-10-19T07:43:21;7.10;99.90
11617;DHT22;5864;52.998;9.068;2023-10-19T07:46:07;7.10;99.90
11617;DHT22;5864;52.998;9.068;2023-10-19T07:48:54;7.10;99.90
11617;DHT22;5864;52.998;9.068;2023-10-19T07:51:45;7.00;99.90
11617;DHT22;5864;52.998;9.068;2023-10-19T07:54:31;7.00;99.90
11617;DHT22;5864;52.998;9.068;2023-10-19T07:57:17;7.10;99.90
11617;DHT22;5864;52.998;9.068;2023-10-19T08:00:05;7.00;99.90
11617;DHT22;5864;52.998;9.068;2023-10-19T08:02:52;7.10;99.90
11617;DHT22;5864;52.998;9.068;2023-10-19T08:05:41;7.20;99.90
11617;DHT22;5864;52.998;9.068;2023-10-19T08:08:26;7.20;99.90
11617;DHT22;5864;52.998;9.068;2023-10-19T08:11:18;7.10;99.90
11617;DHT22;5864;52.998;9.068;2023-10-19T08:14:04;7.10;99.90
11617;DHT22;5864;52.998;9.068;2023-10-19T08:16:50;7.10;99.90
11617;DHT22;5864;52.998;9.068;2023-10-19T08:19:36;7.50;99.90
11617;DHT22;5864;52.998;9.068;2023-10-19T08:22:24;7.10;99.90
11617;DHT22;5864;52.998;9.068;2023-10-19T08:25:11;7.20;99.90
11617;DHT22;5864;52.998;9.068;2023-10-19T08:27:58;7.20;99.90
11617;DHT22;5864;52.998;9.068;2023-10-19T08:30:45;7.20;99.90
11617;DHT22;5864;52.998;9.068;2023-10-19T08:33:41;7.30;99.90
11617;DHT22;5864;52.998;9.068;2023-10-19T08:36:27;7.30;99.90
11617;DHT22;5864;52.998;9.068;2023-10-19T08:39:14;7.80;99.90
11617;DHT22;5864;52.998;9.068;2023-10-19T08:42:00;7.40;99.90
11617;DHT22;5864;52.998;9.068;2023-10-19T08:44:46;7.30;99.90
11617;DHT22;5864;52.998;9.068;2023-10-19T08:47:32;7.30;99.90
11617;DHT22;5864;52.998;9.068;2023-10-19T08:50:18;7.30;99.90
11617;DHT22;5864;52.998;9.068;2023-10-19T08:53:09;7.40;99.90
11617;DHT22;5864;52.998;9.068;2023-10-19T08:55:58;7.40;99.90
11617;DHT22;5864;52.998;9.068;2023-10-19T08:58:44;7.40;99.90
11617;DHT22;5864;52.998;9.068;2023-10-19T09:01:30;7.40;99.90
11617;DHT22;5864;52.998;9.068;2023-10-19T09:04:15;7.30;99.90
11617;DHT22;5864;52.998;9.068;2023-10-19T09:07:03;7.40;99.90
11617;DHT22;5864;52.998;9.068;2023-10-19T09:09:52;7.50;99.90
11617;DHT22;5864;52.998;9.068;2023-10-19T09:12:42;7.50;99.90
11617;DHT22;5864;52.998;9.068;2023-10-19T09:15:27;8.70;99.90
11617;DHT22;5864;52.998;9.068;2023-10-19T09:18:15;8.60;99.90
11617;DHT22;5864;52.998;9.068;2023-10-19T09:21:00;7.80;99.90
11617;DHT22;5864;52.998;9.068;2023-10-19T09:23:51;7.50;99.90
11617;DHT22;5864;52.998;9.068;2023-10-19T09:26:37;7.50;99.90
11617;DHT22;5864;52.998;9.068;2023-10-19T09:29:24;7.60;99.90
11617;DHT22;5864;52.998;9.068;2023-10-19T09:32:10;7.60;99.90
11617;DHT22;5864;52.998;9.068;2023-10-19T09:34:58;9.20;99.90
11617;DHT22;5864;52.998;9.068;2023-10-19T09:37:44;7.70;99.90
11617;DHT22;5864;52.998;9.068;2023-10-19T09:40:29;7.60;99.90
11617;DHT22;5864;52.998;9.068;2023-10-19T09:43:16;7.60;99.90
11617;DHT22;5864;52.998;9.068;2023-10-19T09:46:08;7.70;99.90
11617;DHT22;5864;52.998;9.068;2023-10-19T09:48:56;8.10;99.90
11617;DHT22;5864;52.998;9.068;2023-10-19T09:51:41;7.70;99.90
11617;DHT22;5864;52.998;9.068;2023-10-19T09:54:34;7.70;99.90
11617;DHT22;5864;52.998;9.068;2023-10-19T09:57:28;7.70;99.90
11617;DHT22;5864;52.998;9.068;2023-10-19T10:00:16;7.80;99.90
11617;DHT22;5864;52.998;9.068;2023-10-19T10:03:44;7.70;99.90
11617;DHT22;5864;52.998;9.068;2023-10-19T10:06:57;7.70;99.90
11617;DHT22;5864;52.998;9.068;2023-10-19T10:09:43;7.80;99.90
11617;DHT22;5864;52.998;9.068;2023-10-19T10:12:28;7.80;99.90
11617;DHT22;5864;52.998;9.068;2023-10-19T10:15:14;8.90;99.90
11617;DHT22;5864;52.998;9.068;2023-10-19T10:18:13;9.30;99.90
11617;DHT22;5864;52.998;9.068;2023-10-19T10:21:12;7.70;99.90
11617;DHT22;5864;52.998;9.068;2023-10-19T10:24:02;7.80;99.90
11617;DHT22;5864;52.998;9.068;2023-10-19T10:26:58;7.80;99.90
11617;DHT22;5864;52.998;9.068;2023-10-19T10:29:54;7.80;99.90
11617;DHT22;5864;52.998;9.068;2023-10-19T10:32:43;7.80;99.90
11617;DHT22;5864;52.998;9.068;2023-10-19T10:38:45;8.50;99.90
11617;DHT22;5864;52.998;9.068;2023-10-19T10:41:31;8.20;99.90
11617;DHT22;5864;52.998;9.068;2023-10-19T10:44:16;7.90;99.90
11617;DHT22;5864;52.998;9.068;2023-10-19T10:47:03;7.90;99.90
11617;DHT22;5864;52.998;9.068;2023-10-19T10:49:51;8.00;99.90
11617;DHT22;5864;52.998;9.068;2023-10-19T10:52:37;7.90;99.90
11617;DHT22;5864;52.998;9.068;2023-10-19T10:55:25;8.00;99.90
11617;DHT22;5864;52.998;9.068;2023-10-19T10:58:15;8.00;99.90
11617;DHT22;5864;52.998;9.068;2023-10-19T11:01:01;8.00;99.90
11617;DHT22;5864;52.998;9.068;2023-10-19T11:03:46;9.30;99.90
11617;DHT22;5864;52.998;9.068;2023-10-19T11:06:32;8.00;99.90
11617;DHT22;5864;52.998;9.068;2023-10-19T11:09:19;8.00;99.90
11617;DHT22;5864;52.998;9.068;2023-10-19T11:12:12;8.10;99.90
11617;DHT22;5864;52.998;9.068;2023-10-19T11:15:00;8.00;99.90
11617;DHT22;5864;52.998;9.068;2023-10-19T11:17:53;8.00;99.90
11617;DHT22;5864;52.998;9.068;2023-10-19T11:20:39;8.00;99.90
11617;DHT22;5864;52.998;9.068;2023-10-19T11:23:38;8.10;99.90
11617;DHT22;5864;52.998;9.068;2023-10-19T11:26:24;8.10;99.90
11617;DHT22;5864;52.998;9.068;2023-10-19T11:29:16;8.10;99.90
11617;DHT22;5864;52.998;9.068;2023-10-19T11:32:02;8.10;99.90
11617;DHT22;5864;52.998;9.068;2023-10-19T11:34:47;8.10;99.90
11617;DHT22;5864;52.998;9.068;2023-10-19T11:37:46;8.00;99.90
11617;DHT22;5864;52.998;9.068;2023-10-19T11:40:31;8.20;99.90
11617;DHT22;5864;52.998;9.068;2023-10-19T11:43:18;8.00;99.90
11617;DHT22;5864;52.998;9.068;2023-10-19T11:46:05;7.90;99.90
11617;DHT22;5864;52.998;9.068;2023-10-19T11:48:51;8.90;99.90
11617;DHT22;5864;52.998;9.068;2023-10-19T11:51:36;7.90;99.90
11617;DHT22;5864;52.998;9.068;2023-10-19T11:54:21;7.90;99.90
11617;DHT22;5864;52.998;9.068;2023-10-19T11:57:07;7.90;99.90
11617;DHT22;5864;52.998;9.068;2023-10-19T11:59:53;8.80;99.90
11617;DHT22;5864;52.998;9.068;2023-10-19T12:02:43;7.90;99.90
11617;DHT22;5864;52.998;9.068;2023-10-19T12:05:28;7.90;99.90
11617;DHT22;5864;52.998;9.068;2023-10-19T12:08:15;7.90;99.90
11617;DHT22;5864;52.998;9.068;2023-10-19T12:11:01;7.90;99.90
11617;DHT22;5864;52.998;9.068;2023-10-19T12:13:49;7.90;99.90
11617;DHT22;5864;52.998;9.068;2023-10-19T12:16:34;7.90;99.90
11617;DHT22;5864;52.998;9.068;2023-10-19T12:19:22;7.80;99.90
11617;DHT22;5864;52.998;9.068;2023-10-19T12:22:09;9.00;99.90
11617;DHT22;5864;52.998;9.068;2023-10-19T12:24:56;8.10;99.90
11617;DHT22;5864;52.998;9.068;2023-10-19T12:27:42;7.90;99.90
11617;DHT22;5864;52.998;9.068;2023-10-19T12:30:29;8.80;99.90
11617;DHT22;5864;52.998;9.068;2023-10-19T12:33:16;7.90;99.90
11617;DHT22;5864;52.998;9.068;2023-10-19T12:36:03;7.90;99.90
11617;DHT22;5864;52.998;9.068;2023-10-19T12:39:08;7.90;99.90
11617;DHT22;5864;52.998;9.068;2023-10-19T12:41:53;8.40;99.90
11617;DHT22;5864;52.998;9.068;2023-10-19T12:44:40;7.80;99.90
11617;DHT22;5864;52.998;9.068;2023-10-19T12:47:25;7.80;99.90
11617;DHT22;5864;52.998;9.068;2023-10-19T12:50:10;7.90;99.90
11617;DHT22;5864;52.998;9.068;2023-10-19T12:52:58;7.90;99.90
11617;DHT22;5864;52.998;9.068;2023-10-19T12:55:44;7.90;99.90
11617;DHT22;5864;52.998;9.068;2023-10-19T12:58:30;9.30;99.90
11617;DHT22;5864;52.998;9.068;2023-10-19T13:01:16;7.80;99.90
11617;DHT22;5864;52.998;9.068;2023-10-19T13:04:03;7.90;99.90
11617;DHT22;5864;52.998;9.068;2023-10-19T13:06:59;7.80;99.90
11617;DHT22;5864;52.998;9.068;2023-10-19T13:09:46;7.80;99.90
11617;DHT22;5864;52.998;9.068;2023-10-19T13:12:33;7.70;99.90
11617;DHT22;5864;52.998;9.068;2023-10-19T13:15:22;7.70;99.90
11617;DHT22;5864;52.998;9.068;2023-10-19T13:18:11;7.70;99.90
11617;DHT22;5864;52.998;9.068;2023-10-19T13:20:57;7.70;99.90
11617;DHT22;5864;52.998;9.068;2023-10-19T13:23:45;8.50;99.90
11617;DHT22;5864;52.998;9.068;2023-10-19T13:26:32;8.60;99.90
11617;DHT22;5864;52.998;9.068;2023-10-19T13:29:19;7.70;99.90
11617;DHT22;5864;52.998;9.068;2023-10-19T13:32:05;7.60;99.90
11617;DHT22;5864;52.998;9.068;2023-10-19T13:34:51;7.70;99.90
11617;DHT22;5864;52.998;9.068;2023-10-19T13:37:36;7.70;99.90
11617;DHT22;5864;52.998;9.068;2023-10-19T13:40:22;7.60;99.90
11617;DHT22;5864;52.998;9.068;2023-10-19T13:43:11;8.40;99.90
11617;DHT22;5864;52.998;9.068;2023-10-19T13:45:58;7.50;99.90
11617;DHT22;5864;52.998;9.068;2023-10-19T13:48:46;7.50;99.90
11617;DHT22;5864;52.998;9.068;2023-10-19T13:51:31;7.50;99.90
11617;DHT22;5864;52.998;9.068;2023-10-19T13:54:17;8.00;99.90
11617;DHT22;5864;52.998;9.068;2023-10-19T13:57:02;7.50;99.90
11617;DHT22;5864;52.998;9.068;2023-10-19T13:59:49;7.50;99.90
11617;DHT22;5864;52.998;9.068;2023-10-19T14:02:35;7.60;99.90
11617;DHT22;5864;52.998;9.068;2023-10-19T14:05:20;7.90;99.90
11617;DHT22;5864;52.998;9.068;2023-10-19T14:08:08;7.60;99.90
11617;DHT22;5864;52.998;9.068;2023-10-19T14:10:54;7.50;99.90
11617;DHT22;5864;52.998;9.068;2023-10-19T14:13:45;7.50;99.90
11617;DHT22;5864;52.998;9.068;2023-10-19T14:16:33;7.50;99.90
11617;DHT22;5864;52.998;9.068;2023-10-19T14:19:19;7.50;99.90
11617;DHT22;5864;52.998;9.068;2023-10-19T14:22:05;8.10;99.90
11617;DHT22;5864;52.998;9.068;2023-10-19T14:24:51;7.40;99.90
11617;DHT22;5864;52.998;9.068;2023-10-19T14:27:37;8.00;99.90
11617;DHT22;5864;52.998;9.068;2023-10-19T14:30:23;7.40;99.90
11617;DHT22;5864;52.998;9.068;2023-10-19T14:33:10;7.40;99.90
11617;DHT22;5864;52.998;9.068;2023-10-19T14:35:56;7.50;99.90
11617;DHT22;5864;52.998;9.068;2023-10-19T14:38:42;8.40;99.90
11617;DHT22;5864;52.998;9.068;2023-10-19T14:41:30;7.50;99.90
11617;DHT22;5864;52.998;9.068;2023-10-19T14:44:15;7.50;99.90
11617;DHT22;5864;52.998;9.068;2023-10-19T14:47:02;7.50;99.90
11617;DHT22;5864;52.998;9.068;2023-10-19T14:49:49;7.50;99.90
11617;DHT22;5864;52.998;9.068;2023-10-19T14:52:36;7.50;99.90
11617;DHT22;5864;52.998;9.068;2023-10-19T14:55:21;7.50;99.90
11617;DHT22;5864;52.998;9.068;2023-10-19T14:58:08;7.50;99.90
11617;DHT22;5864;52.998;9.068;2023-10-19T15:00:53;7.50;99.90
11617;DHT22;5864;52.998;9.068;2023-10-19T15:03:41;7.50;99.90
11617;DHT22;5864;52.998;9.068;2023-10-19T15:06:27;7.50;99.90
11617;DHT22;5864;52.998;9.068;2023-10-19T15:09:16;7.60;99.90
11617;DHT22;5864;52.998;9.068;2023-10-19T15:12:06;7.50;99.90
11617;DHT22;5864;52.998;9.068;2023-10-19T15:14:52;7.40;99.90
11617;DHT22;5864;52.998;9.068;2023-10-19T15:17:39;7.50;99.90
11617;DHT22;5864;52.998;9.068;2023-10-19T15:20:26;7.40;99.90
11617;DHT22;5864;52.998;9.068;2023-10-19T15:23:13;8.90;99.90
11617;DHT22;5864;52.998;9.068;2023-10-19T15:25:58;7.90;99.90
11617;DHT22;5864;52.998;9.068;2023-10-19T15:28:45;7.50;99.90
11617;DHT22;5864;52.998;9.068;2023-10-19T15:31:30;7.40;99.90
11617;DHT22;5864;52.998;9.068;2023-10-19T15:34:18;7.40;99.90
11617;DHT22;5864;52.998;9.068;2023-10-19T15:37:04;7.40;99.90
11617;DHT22;5864;52.998;9.068;2023-10-19T15:39:51;7.40;99.90
11617;DHT22;5864;52.998;9.068;2023-10-19T15:42:37;7.40;99.90
11617;DHT22;5864;52.998;9.068;2023-10-19T15:45:26;7.40;99.90
11617;DHT22;5864;52.998;9.068;2023-10-19T15:48:13;7.50;99.90
11617;DHT22;5864;52.998;9.068;2023-10-19T15:50:58;7.40;99.90
11617;DHT22;5864;52.998;9.068;2023-10-19T15:53:44;7.50;99.90
11617;DHT22;5864;52.998;9.068;2023-10-19T15:56:31;7.50;99.90
11617;DHT22;5864;52.998;9.068;2023-10-19T15:59:18;8.70;99.90
11617;DHT22;5864;52.998;9.068;2023-10-19T16:02:03;7.40;99.90
11617;DHT22;5864;52.998;9.068;2023-10-19T16:04:50;7.50;99.90
11617;DHT22;5864;52.998;9.068;2023-10-19T16:07:36;7.40;99.90
11617;DHT22;5864;52.998;9.068;2023-10-19T16:10:21;7.80;99.90
11617;DHT22;5864;52.998;9.068;2023-10-19T16:13:08;7.40;99.90
11617;DHT22;5864;52.998;9.068;2023-10-19T16:15:53;7.40;99.90
11617;DHT22;5864;52.998;9.068;2023-10-19T16:18:39;7.40;99.90
11617;DHT22;5864;52.998;9.068;2023-10-19T16:21:25;7.40;99.90
11617;DHT22;5864;52.998;9.068;2023-10-19T16:24:11;7.40;99.90
11617;DHT22;5864;52.998;9.068;2023-10-19T16:26:59;8.20;99.90
11617;DHT22;5864;52.998;9.068;2023-10-19T16:29:45;7.30;99.90
11617;DHT22;5864;52.998;9.068;2023-10-19T16:32:31;7.30;99.90
11617;DHT22;5864;52.998;9.068;2023-10-19T16:35:20;7.30;99.90
11617;DHT22;5864;52.998;9.068;2023-10-19T16:38:05;7.40;99.90
11617;DHT22;5864;52.998;9.068;2023-10-19T16:40:58;7.80;99.90
11617;DHT22;5864;52.998;9.068;2023-10-19T16:43:44;7.30;99.90
11617;DHT22;5864;52.998;9.068;2023-10-19T16:46:32;7.30;99.90
11617;DHT22;5864;52.998;9.068;2023-10-19T16:49:18;8.30;99.90
11617;DHT22;5864;52.998;9.068;2023-10-19T16:52:03;7.30;99.90
11617;DHT22;5864;52.998;9.068;2023-10-19T16:54:49;7.30;99.90
11617;DHT22;5864;52.998;9.068;2023-10-19T16:57:35;7.30;99.90
11617;DHT22;5864;52.998;9.068;2023-10-19T17:00:20;7.30;99.90
11617;DHT22;5864;52.998;9.068;2023-10-19T17:03:08;7.30;99.90
11617;DHT22;5864;52.998;9.068;2023-10-19T17:05:53;8.10;99.90
11617;DHT22;5864;52.998;9.068;2023-10-19T17:08:40;7.30;99.90
11617;DHT22;5864;52.998;9.068;2023-10-19T17:11:25;7.40;99.90
11617;DHT22;5864;52.998;9.068;2023-10-19T17:14:11;7.40;99.90
11617;DHT22;5864;52.998;9.068;2023-10-19T17:16:56;7.40;99.90
11617;DHT22;5864;52.998;9.068;2023-10-19T17:19:44;7.40;99.90
11617;DHT22;5864;52.998;9.068;2023-10-19T17:22:30;7.30;99.90
11617;DHT22;5864;52.998;9.068;2023-10-19T17:25:17;7.40;99.90
11617;DHT22;5864;52.998;9.068;2023-10-19T17:28:04;7.30;99.90
11617;DHT22;5864;52.998;9.068;2023-10-19T17:30:50;7.30;99.90
11617;DHT22;5864;52.998;9.068;2023-10-19T17:33:37;7.30;99.90
11617;DHT22;5864;52.998;9.068;2023-10-19T17:36:24;8.20;99.90
11617;DHT22;5864;52.998;9.068;2023-10-19T17:39:10;7.40;99.90
11617;DHT22;5864;52.998;9.068;2023-10-19T17:41:56;7.70;99.90
11617;DHT22;5864;52.998;9.068;2023-10-19T17:44:41;7.90;99.90
11617;DHT22;5864;52.998;9.068;2023-10-19T17:47:28;7.30;99.90
11617;DHT22;5864;52.998;9.068;2023-10-19T17:50:13;8.40;99.90
11617;DHT22;5864;52.998;9.068;2023-10-19T17:53:01;7.30;99.90
11617;DHT22;5864;52.998;9.068;2023-10-19T17:55:46;7.20;99.90
11617;DHT22;5864;52.998;9.068;2023-10-19T17:58:33;8.00;99.90
11617;DHT22;5864;52.998;9.068;2023-10-19T18:01:19;7.30;99.90
11617;DHT22;5864;52.998;9.068;2023-10-19T18:04:05;7.20;99.90
11617;DHT22;5864;52.998;9.068;2023-10-19T18:06:52;7.20;99.90
11617;DHT22;5864;52.998;9.068;2023-10-19T18:09:38;7.20;99.90
11617;DHT22;5864;52.998;9.068;2023-10-19T18:12:28;7.20;99.90
11617;DHT22;5864;52.998;9.068;2023-10-19T18:15:13;7.20;99.90
11617;DHT22;5864;52.998;9.068;2023-10-19T18:18:04;7.30;99.90
11617;DHT22;5864;52.998;9.068;2023-10-19T18:20:50;7.20;99.90